Terminal Aerodrome Forecast
Issued by NWS Wilmington, OH

Current Version | Previous Version | Graphics & Text | Print | Product List | Glossary On
Versions: 1 2 3 4 5 6 7 8 9 10 11 12 13 14 15
000
FTUS41 KILN 291743
TAFILN
TAF
KILN 291743Z 2918/3018 22010KT P6SM VCTS BKN040CB
     FM300000 19005KT P6SM SCT040 BKN150
     FM301400 22008KT P6SM BKN040=

USA.gov is the U.S. government's official web portal to all federal, state and local government web resources and services.